sensor_id;sensor_type;location;lat;lon;timestamp;P1;durP1;ratioP1;P2;durP2;ratioP2
61572;SDS011;47465;43.094;12.434;2024-03-08T00:02:14;9.90;;;5.53;;
61572;SDS011;47465;43.094;12.434;2024-03-08T00:04:40;11.50;;;4.93;;
61572;SDS011;47465;43.094;12.434;2024-03-08T00:07:07;8.18;;;4.55;;
61572;SDS011;47465;43.094;12.434;2024-03-08T00:09:36;10.85;;;4.05;;
61572;SDS011;47465;43.094;12.434;2024-03-08T00:12:03;9.45;;;4.85;;
61572;SDS011;47465;43.094;12.434;2024-03-08T00:14:33;7.28;;;4.10;;
61572;SDS011;47465;43.094;12.434;2024-03-08T00:16:59;9.50;;;4.85;;
61572;SDS011;47465;43.094;12.434;2024-03-08T00:19:28;10.15;;;4.78;;
61572;SDS011;47465;43.094;12.434;2024-03-08T00:21:57;11.60;;;5.75;;
61572;SDS011;47465;43.094;12.434;2024-03-08T00:24:23;10.18;;;5.20;;
61572;SDS011;47465;43.094;12.434;2024-03-08T00:26:50;8.40;;;4.40;;
61572;SDS011;47465;43.094;12.434;2024-03-08T00:29:19;9.40;;;5.93;;
61572;SDS011;47465;43.094;12.434;2024-03-08T00:31:49;11.63;;;5.05;;
61572;SDS011;47465;43.094;12.434;2024-03-08T00:34:17;10.10;;;4.90;;
61572;SDS011;47465;43.094;12.434;2024-03-08T00:36:43;11.55;;;6.15;;
61572;SDS011;47465;43.094;12.434;2024-03-08T00:39:10;9.80;;;5.60;;
61572;SDS011;47465;43.094;12.434;2024-03-08T00:41:37;9.02;;;4.40;;
61572;SDS011;47465;43.094;12.434;2024-03-08T00:44:04;9.75;;;4.57;;
61572;SDS011;47465;43.094;12.434;2024-03-08T00:46:30;15.38;;;5.57;;
61572;SDS011;47465;43.094;12.434;2024-03-08T00:49:01;10.85;;;4.95;;
61572;SDS011;47465;43.094;12.434;2024-03-08T00:51:27;8.93;;;4.45;;
61572;SDS011;47465;43.094;12.434;2024-03-08T00:53:54;11.07;;;5.68;;
61572;SDS011;47465;43.094;12.434;2024-03-08T00:56:20;8.68;;;4.93;;
61572;SDS011;47465;43.094;12.434;2024-03-08T01:01:19;11.63;;;5.70;;
61572;SDS011;47465;43.094;12.434;2024-03-08T01:03:45;14.50;;;5.82;;
61572;SDS011;47465;43.094;12.434;2024-03-08T01:06:13;11.52;;;6.65;;
61572;SDS011;47465;43.094;12.434;2024-03-08T01:08:40;10.15;;;5.78;;
61572;SDS011;47465;43.094;12.434;2024-03-08T01:11:08;13.32;;;6.07;;
61572;SDS011;47465;43.094;12.434;2024-03-08T01:13:36;10.02;;;5.55;;
61572;SDS011;47465;43.094;12.434;2024-03-08T01:16:03;12.63;;;5.93;;
61572;SDS011;47465;43.094;12.434;2024-03-08T01:18:30;14.05;;;6.20;;
61572;SDS011;47465;43.094;12.434;2024-03-08T01:20:56;11.52;;;5.68;;
61572;SDS011;47465;43.094;12.434;2024-03-08T01:23:24;10.43;;;5.63;;
61572;SDS011;47465;43.094;12.434;2024-03-08T01:25:53;12.80;;;6.25;;
61572;SDS011;47465;43.094;12.434;2024-03-08T01:28:25;13.25;;;6.50;;
61572;SDS011;47465;43.094;12.434;2024-03-08T01:30:54;15.05;;;6.18;;
61572;SDS011;47465;43.094;12.434;2024-03-08T01:33:21;11.45;;;5.75;;
61572;SDS011;47465;43.094;12.434;2024-03-08T01:35:48;10.52;;;5.32;;
61572;SDS011;47465;43.094;12.434;2024-03-08T01:38:14;10.15;;;5.05;;
61572;SDS011;47465;43.094;12.434;2024-03-08T01:40:42;10.38;;;5.13;;
61572;SDS011;47465;43.094;12.434;2024-03-08T01:43:18;11.77;;;5.32;;
61572;SDS011;47465;43.094;12.434;2024-03-08T01:45:48;12.13;;;6.13;;
61572;SDS011;47465;43.094;12.434;2024-03-08T01:48:15;9.68;;;5.10;;
61572;SDS011;47465;43.094;12.434;2024-03-08T01:50:43;15.23;;;6.57;;
61572;SDS011;47465;43.094;12.434;2024-03-08T01:53:10;12.00;;;5.85;;
61572;SDS011;47465;43.094;12.434;2024-03-08T01:55:37;10.82;;;5.80;;
61572;SDS011;47465;43.094;12.434;2024-03-08T01:58:05;12.48;;;4.60;;
61572;SDS011;47465;43.094;12.434;2024-03-08T02:00:32;9.32;;;4.97;;
61572;SDS011;47465;43.094;12.434;2024-03-08T02:02:59;9.68;;;4.85;;
61572;SDS011;47465;43.094;12.434;2024-03-08T02:05:26;9.75;;;5.57;;
61572;SDS011;47465;43.094;12.434;2024-03-08T02:07:55;10.95;;;4.60;;
61572;SDS011;47465;43.094;12.434;2024-03-08T02:10:22;10.40;;;4.35;;
61572;SDS011;47465;43.094;12.434;2024-03-08T02:12:48;12.38;;;5.40;;
61572;SDS011;47465;43.094;12.434;2024-03-08T02:15:16;8.80;;;5.03;;
61572;SDS011;47465;43.094;12.434;2024-03-08T02:17:42;11.63;;;4.53;;
61572;SDS011;47465;43.094;12.434;2024-03-08T02:20:09;8.30;;;4.40;;
61572;SDS011;47465;43.094;12.434;2024-03-08T02:22:40;10.88;;;5.15;;
61572;SDS011;47465;43.094;12.434;2024-03-08T02:25:06;8.18;;;4.95;;
61572;SDS011;47465;43.094;12.434;2024-03-08T02:27:35;11.93;;;5.32;;
61572;SDS011;47465;43.094;12.434;2024-03-08T02:30:02;9.80;;;4.40;;
61572;SDS011;47465;43.094;12.434;2024-03-08T02:32:29;9.50;;;4.20;;
61572;SDS011;47465;43.094;12.434;2024-03-08T02:34:56;8.80;;;4.15;;
61572;SDS011;47465;43.094;12.434;2024-03-08T02:37:25;9.90;;;4.57;;
61572;SDS011;47465;43.094;12.434;2024-03-08T02:39:59;10.30;;;4.95;;
61572;SDS011;47465;43.094;12.434;2024-03-08T02:42:25;10.25;;;4.07;;
61572;SDS011;47465;43.094;12.434;2024-03-08T02:44:52;10.70;;;4.43;;
61572;SDS011;47465;43.094;12.434;2024-03-08T02:47:18;9.85;;;4.47;;
61572;SDS011;47465;43.094;12.434;2024-03-08T02:49:44;10.30;;;4.93;;
61572;SDS011;47465;43.094;12.434;2024-03-08T02:52:11;11.50;;;4.80;;
61572;SDS011;47465;43.094;12.434;2024-03-08T02:54:37;10.02;;;5.28;;
61572;SDS011;47465;43.094;12.434;2024-03-08T02:57:05;8.95;;;4.60;;
61572;SDS011;47465;43.094;12.434;2024-03-08T02:59:32;7.97;;;3.70;;
61572;SDS011;47465;43.094;12.434;2024-03-08T03:01:59;7.90;;;4.03;;
61572;SDS011;47465;43.094;12.434;2024-03-08T03:04:25;10.77;;;4.50;;
61572;SDS011;47465;43.094;12.434;2024-03-08T03:06:54;13.02;;;5.03;;
61572;SDS011;47465;43.094;12.434;2024-03-08T03:09:20;12.05;;;4.57;;
61572;SDS011;47465;43.094;12.434;2024-03-08T03:11:53;8.13;;;3.75;;
61572;SDS011;47465;43.094;12.434;2024-03-08T03:14:24;10.35;;;4.45;;
61572;SDS011;47465;43.094;12.434;2024-03-08T03:16:52;10.43;;;4.60;;
61572;SDS011;47465;43.094;12.434;2024-03-08T03:19:19;11.02;;;4.55;;
61572;SDS011;47465;43.094;12.434;2024-03-08T03:21:47;10.68;;;5.07;;
61572;SDS011;47465;43.094;12.434;2024-03-08T03:24:14;7.72;;;5.38;;
61572;SDS011;47465;43.094;12.434;2024-03-08T03:26:41;9.10;;;4.22;;
61572;SDS011;47465;43.094;12.434;2024-03-08T03:29:09;9.75;;;4.30;;
61572;SDS011;47465;43.094;12.434;2024-03-08T03:31:37;11.75;;;4.43;;
61572;SDS011;47465;43.094;12.434;2024-03-08T03:34:05;8.93;;;4.10;;
61572;SDS011;47465;43.094;12.434;2024-03-08T03:36:34;8.45;;;4.20;;
61572;SDS011;47465;43.094;12.434;2024-03-08T03:39:00;8.05;;;4.13;;
61572;SDS011;47465;43.094;12.434;2024-03-08T03:41:35;11.30;;;4.43;;
61572;SDS011;47465;43.094;12.434;2024-03-08T03:44:04;8.75;;;4.32;;
61572;SDS011;47465;43.094;12.434;2024-03-08T03:46:33;10.95;;;5.05;;
61572;SDS011;47465;43.094;12.434;2024-03-08T03:49:04;10.20;;;5.00;;
61572;SDS011;47465;43.094;12.434;2024-03-08T03:51:32;10.50;;;4.68;;
61572;SDS011;47465;43.094;12.434;2024-03-08T03:54:00;8.43;;;4.07;;
61572;SDS011;47465;43.094;12.434;2024-03-08T03:56:29;9.55;;;4.88;;
61572;SDS011;47465;43.094;12.434;2024-03-08T03:58:57;11.75;;;4.47;;
61572;SDS011;47465;43.094;12.434;2024-03-08T04:01:26;8.50;;;4.18;;
61572;SDS011;47465;43.094;12.434;2024-03-08T04:03:52;8.07;;;4.75;;
61572;SDS011;47465;43.094;12.434;2024-03-08T04:06:20;8.27;;;4.40;;
61572;SDS011;47465;43.094;12.434;2024-03-08T04:08:48;7.93;;;4.72;;
61572;SDS011;47465;43.094;12.434;2024-03-08T04:11:14;10.23;;;4.78;;
61572;SDS011;47465;43.094;12.434;2024-03-08T04:13:42;11.07;;;4.88;;
61572;SDS011;47465;43.094;12.434;2024-03-08T04:16:08;10.30;;;4.88;;
61572;SDS011;47465;43.094;12.434;2024-03-08T04:18:36;9.32;;;4.57;;
61572;SDS011;47465;43.094;12.434;2024-03-08T04:21:03;10.05;;;4.93;;
61572;SDS011;47465;43.094;12.434;2024-03-08T04:23:34;11.90;;;5.55;;
61572;SDS011;47465;43.094;12.434;2024-03-08T04:26:01;14.27;;;5.32;;
61572;SDS011;47465;43.094;12.434;2024-03-08T04:28:35;9.57;;;5.53;;
61572;SDS011;47465;43.094;12.434;2024-03-08T04:31:02;16.98;;;5.13;;
61572;SDS011;47465;43.094;12.434;2024-03-08T04:33:29;14.43;;;5.22;;
61572;SDS011;47465;43.094;12.434;2024-03-08T04:35:58;9.70;;;5.03;;
61572;SDS011;47465;43.094;12.434;2024-03-08T04:38:24;12.77;;;5.85;;
61572;SDS011;47465;43.094;12.434;2024-03-08T04:40:55;14.65;;;5.93;;
61572;SDS011;47465;43.094;12.434;2024-03-08T04:43:24;13.82;;;5.28;;
61572;SDS011;47465;43.094;12.434;2024-03-08T04:45:54;10.73;;;5.57;;
61572;SDS011;47465;43.094;12.434;2024-03-08T04:48:20;7.53;;;4.00;;
61572;SDS011;47465;43.094;12.434;2024-03-08T04:50:49;11.48;;;5.05;;
61572;SDS011;47465;43.094;12.434;2024-03-08T04:53:16;10.38;;;5.05;;
61572;SDS011;47465;43.094;12.434;2024-03-08T04:55:43;9.75;;;5.07;;
61572;SDS011;47465;43.094;12.434;2024-03-08T04:58:11;13.32;;;5.35;;
61572;SDS011;47465;43.094;12.434;2024-03-08T05:00:37;12.25;;;5.40;;
61572;SDS011;47465;43.094;12.434;2024-03-08T05:03:03;11.82;;;4.78;;
61572;SDS011;47465;43.094;12.434;2024-03-08T05:05:32;11.60;;;5.13;;
61572;SDS011;47465;43.094;12.434;2024-03-08T05:08:05;12.25;;;4.35;;
61572;SDS011;47465;43.094;12.434;2024-03-08T05:10:32;11.63;;;5.25;;
61572;SDS011;47465;43.094;12.434;2024-03-08T05:12:58;9.32;;;4.53;;
61572;SDS011;47465;43.094;12.434;2024-03-08T05:15:26;8.68;;;4.45;;
61572;SDS011;47465;43.094;12.434;2024-03-08T05:17:52;10.77;;;4.88;;
61572;SDS011;47465;43.094;12.434;2024-03-08T05:20:19;12.40;;;4.72;;
61572;SDS011;47465;43.094;12.434;2024-03-08T05:22:48;12.23;;;5.25;;
61572;SDS011;47465;43.094;12.434;2024-03-08T05:25:14;9.32;;;4.97;;
61572;SDS011;47465;43.094;12.434;2024-03-08T05:27:44;9.73;;;4.22;;
61572;SDS011;47465;43.094;12.434;2024-03-08T05:30:10;11.00;;;5.00;;
61572;SDS011;47465;43.094;12.434;2024-03-08T05:32:42;17.13;;;6.45;;
61572;SDS011;47465;43.094;12.434;2024-03-08T05:35:12;31.25;;;11.02;;
61572;SDS011;47465;43.094;12.434;2024-03-08T05:37:41;37.65;;;12.93;;
61572;SDS011;47465;43.094;12.434;2024-03-08T05:40:13;27.77;;;8.48;;
61572;SDS011;47465;43.094;12.434;2024-03-08T05:42:39;34.97;;;12.90;;
61572;SDS011;47465;43.094;12.434;2024-03-08T05:45:05;26.58;;;9.23;;
61572;SDS011;47465;43.094;12.434;2024-03-08T05:47:32;23.92;;;9.77;;
61572;SDS011;47465;43.094;12.434;2024-03-08T05:50:03;17.60;;;7.57;;
61572;SDS011;47465;43.094;12.434;2024-03-08T05:52:30;22.60;;;8.45;;
61572;SDS011;47465;43.094;12.434;2024-03-08T05:54:56;17.08;;;7.70;;
61572;SDS011;47465;43.094;12.434;2024-03-08T05:57:34;21.70;;;7.95;;
61572;SDS011;47465;43.094;12.434;2024-03-08T06:00:03;15.07;;;6.93;;
61572;SDS011;47465;43.094;12.434;2024-03-08T06:02:31;14.00;;;6.32;;
61572;SDS011;47465;43.094;12.434;2024-03-08T06:05:03;10.45;;;5.75;;
61572;SDS011;47465;43.094;12.434;2024-03-08T06:07:30;11.20;;;4.13;;
61572;SDS011;47465;43.094;12.434;2024-03-08T06:09:59;10.38;;;5.60;;
61572;SDS011;47465;43.094;12.434;2024-03-08T06:12:27;9.60;;;4.90;;
61572;SDS011;47465;43.094;12.434;2024-03-08T06:14:58;8.98;;;5.05;;
61572;SDS011;47465;43.094;12.434;2024-03-08T06:17:34;9.40;;;4.75;;
61572;SDS011;47465;43.094;12.434;2024-03-08T06:23:19;10.95;;;5.05;;
61572;SDS011;47465;43.094;12.434;2024-03-08T06:25:48;11.38;;;5.43;;
61572;SDS011;47465;43.094;12.434;2024-03-08T06:28:14;10.35;;;5.25;;
61572;SDS011;47465;43.094;12.434;2024-03-08T06:30:41;8.85;;;5.13;;
61572;SDS011;47465;43.094;12.434;2024-03-08T06:33:19;10.38;;;5.07;;
61572;SDS011;47465;43.094;12.434;2024-03-08T06:35:47;10.07;;;4.75;;
61572;SDS011;47465;43.094;12.434;2024-03-08T06:38:13;9.57;;;5.35;;
61572;SDS011;47465;43.094;12.434;2024-03-08T06:40:47;15.60;;;6.63;;
61572;SDS011;47465;43.094;12.434;2024-03-08T06:43:13;16.40;;;6.95;;
61572;SDS011;47465;43.094;12.434;2024-03-08T06:45:41;12.45;;;5.95;;
61572;SDS011;47465;43.094;12.434;2024-03-08T06:48:10;16.10;;;6.85;;
61572;SDS011;47465;43.094;12.434;2024-03-08T06:50:37;15.10;;;6.03;;
61572;SDS011;47465;43.094;12.434;2024-03-08T06:53:04;19.83;;;6.45;;
61572;SDS011;47465;43.094;12.434;2024-03-08T06:55:30;16.13;;;5.43;;
61572;SDS011;47465;43.094;12.434;2024-03-08T06:57:58;12.20;;;5.90;;
61572;SDS011;47465;43.094;12.434;2024-03-08T07:00:24;18.45;;;6.15;;
61572;SDS011;47465;43.094;12.434;2024-03-08T07:02:53;16.17;;;6.72;;
61572;SDS011;47465;43.094;12.434;2024-03-08T07:05:22;13.57;;;7.03;;
61572;SDS011;47465;43.094;12.434;2024-03-08T07:07:51;16.70;;;6.13;;
61572;SDS011;47465;43.094;12.434;2024-03-08T07:10:20;10.35;;;5.35;;
61572;SDS011;47465;43.094;12.434;2024-03-08T07:12:49;9.38;;;5.40;;
61572;SDS011;47465;43.094;12.434;2024-03-08T07:15:18;14.02;;;5.30;;
61572;SDS011;47465;43.094;12.434;2024-03-08T07:17:50;11.77;;;4.72;;
61572;SDS011;47465;43.094;12.434;2024-03-08T07:20:19;8.30;;;4.57;;
61572;SDS011;47465;43.094;12.434;2024-03-08T07:22:45;13.18;;;4.57;;
61572;SDS011;47465;43.094;12.434;2024-03-08T07:25:13;9.18;;;4.53;;
61572;SDS011;47465;43.094;12.434;2024-03-08T07:27:49;11.48;;;5.13;;
61572;SDS011;47465;43.094;12.434;2024-03-08T07:30:22;10.57;;;5.00;;
61572;SDS011;47465;43.094;12.434;2024-03-08T07:33:22;11.20;;;4.95;;
61572;SDS011;47465;43.094;12.434;2024-03-08T07:35:50;9.68;;;5.05;;
61572;SDS011;47465;43.094;12.434;2024-03-08T07:38:19;8.60;;;4.15;;
61572;SDS011;47465;43.094;12.434;2024-03-08T07:40:52;10.30;;;5.05;;
61572;SDS011;47465;43.094;12.434;2024-03-08T07:43:24;10.30;;;5.50;;
61572;SDS011;47465;43.094;12.434;2024-03-08T07:46:05;10.95;;;5.20;;
61572;SDS011;47465;43.094;12.434;2024-03-08T07:48:35;11.50;;;5.63;;
61572;SDS011;47465;43.094;12.434;2024-03-08T07:51:02;12.35;;;5.80;;
61572;SDS011;47465;43.094;12.434;2024-03-08T07:53:34;8.70;;;5.22;;
61572;SDS011;47465;43.094;12.434;2024-03-08T07:56:00;8.98;;;4.88;;
61572;SDS011;47465;43.094;12.434;2024-03-08T07:58:30;12.30;;;5.28;;
61572;SDS011;47465;43.094;12.434;2024-03-08T08:04:01;10.27;;;5.47;;
61572;SDS011;47465;43.094;12.434;2024-03-08T08:06:30;11.43;;;5.53;;
61572;SDS011;47465;43.094;12.434;2024-03-08T08:09:01;11.00;;;5.80;;
61572;SDS011;47465;43.094;12.434;2024-03-08T08:11:31;11.60;;;5.50;;
61572;SDS011;47465;43.094;12.434;2024-03-08T08:14:00;15.35;;;6.00;;
61572;SDS011;47465;43.094;12.434;2024-03-08T08:17:21;10.93;;;6.00;;
61572;SDS011;47465;43.094;12.434;2024-03-08T08:19:54;13.20;;;7.18;;
61572;SDS011;47465;43.094;12.434;2024-03-08T08:22:36;13.75;;;6.63;;
61572;SDS011;47465;43.094;12.434;2024-03-08T08:25:09;19.38;;;6.53;;
61572;SDS011;47465;43.094;12.434;2024-03-08T08:27:41;13.73;;;6.18;;
61572;SDS011;47465;43.094;12.434;2024-03-08T08:30:08;12.75;;;6.35;;
61572;SDS011;47465;43.094;12.434;2024-03-08T08:32:36;14.00;;;6.75;;
61572;SDS011;47465;43.094;12.434;2024-03-08T08:44:48;12.68;;;6.13;;
61572;SDS011;47465;43.094;12.434;2024-03-08T08:47:20;13.35;;;6.45;;
61572;SDS011;47465;43.094;12.434;2024-03-08T08:49:50;15.30;;;6.82;;
61572;SDS011;47465;43.094;12.434;2024-03-08T08:52:21;13.55;;;7.57;;
61572;SDS011;47465;43.094;12.434;2024-03-08T08:54:48;12.00;;;6.57;;
61572;SDS011;47465;43.094;12.434;2024-03-08T08:57:19;13.32;;;7.05;;
61572;SDS011;47465;43.094;12.434;2024-03-08T08:59:46;15.27;;;7.47;;
61572;SDS011;47465;43.094;12.434;2024-03-08T09:02:15;15.50;;;7.03;;
61572;SDS011;47465;43.094;12.434;2024-03-08T09:04:46;13.18;;;7.10;;
61572;SDS011;47465;43.094;12.434;2024-03-08T09:07:13;14.20;;;6.90;;
61572;SDS011;47465;43.094;12.434;2024-03-08T09:10:06;18.25;;;8.18;;
61572;SDS011;47465;43.094;12.434;2024-03-08T09:12:39;17.08;;;8.00;;
61572;SDS011;47465;43.094;12.434;2024-03-08T09:15:08;16.13;;;7.55;;
61572;SDS011;47465;43.094;12.434;2024-03-08T09:17:39;16.48;;;8.55;;
61572;SDS011;47465;43.094;12.434;2024-03-08T09:20:18;18.90;;;8.32;;
61572;SDS011;47465;43.094;12.434;2024-03-08T09:38:01;13.85;;;8.35;;
61572;SDS011;47465;43.094;12.434;2024-03-08T09:40:27;12.30;;;6.90;;
61572;SDS011;47465;43.094;12.434;2024-03-08T09:42:52;15.80;;;8.52;;
61572;SDS011;47465;43.094;12.434;2024-03-08T09:45:20;13.80;;;7.47;;
61572;SDS011;47465;43.094;12.434;2024-03-08T09:47:47;18.45;;;7.25;;
61572;SDS011;47465;43.094;12.434;2024-03-08T09:50:14;13.05;;;6.00;;
61572;SDS011;47465;43.094;12.434;2024-03-08T09:52:41;13.52;;;6.57;;
61572;SDS011;47465;43.094;12.434;2024-03-08T09:55:10;16.77;;;6.85;;
61572;SDS011;47465;43.094;12.434;2024-03-08T09:57:38;13.57;;;6.55;;
61572;SDS011;47465;43.094;12.434;2024-03-08T10:00:05;12.45;;;6.32;;
61572;SDS011;47465;43.094;12.434;2024-03-08T10:02:45;11.88;;;5.72;;
61572;SDS011;47465;43.094;12.434;2024-03-08T10:05:11;14.98;;;6.70;;
61572;SDS011;47465;43.094;12.434;2024-03-08T10:07:38;11.32;;;5.60;;
61572;SDS011;47465;43.094;12.434;2024-03-08T10:10:04;9.95;;;5.75;;
61572;SDS011;47465;43.094;12.434;2024-03-08T10:12:32;10.55;;;5.32;;
61572;SDS011;47465;43.094;12.434;2024-03-08T10:14:58;10.02;;;4.78;;
61572;SDS011;47465;43.094;12.434;2024-03-08T10:17:24;8.80;;;4.35;;
61572;SDS011;47465;43.094;12.434;2024-03-08T10:19:51;9.27;;;4.93;;
61572;SDS011;47465;43.094;12.434;2024-03-08T10:22:17;7.25;;;4.18;;
61572;SDS011;47465;43.094;12.434;2024-03-08T10:24:44;9.68;;;4.38;;
61572;SDS011;47465;43.094;12.434;2024-03-08T10:27:11;8.35;;;4.13;;
61572;SDS011;47465;43.094;12.434;2024-03-08T10:29:38;9.45;;;4.85;;
61572;SDS011;47465;43.094;12.434;2024-03-08T10:32:08;8.57;;;4.07;;
61572;SDS011;47465;43.094;12.434;2024-03-08T10:34:35;6.25;;;3.83;;
61572;SDS011;47465;43.094;12.434;2024-03-08T10:37:03;8.95;;;3.92;;
61572;SDS011;47465;43.094;12.434;2024-03-08T10:39:32;8.98;;;4.75;;
61572;SDS011;47465;43.094;12.434;2024-03-08T10:42:02;10.32;;;4.30;;
61572;SDS011;47465;43.094;12.434;2024-03-08T10:44:36;6.93;;;3.95;;
61572;SDS011;47465;43.094;12.434;2024-03-08T10:47:18;7.88;;;4.82;;
61572;SDS011;47465;43.094;12.434;2024-03-08T10:49:50;9.48;;;4.72;;
61572;SDS011;47465;43.094;12.434;2024-03-08T10:52:19;9.07;;;4.30;;
61572;SDS011;47465;43.094;12.434;2024-03-08T10:54:45;6.50;;;3.15;;
61572;SDS011;47465;43.094;12.434;2024-03-08T10:57:13;10.30;;;4.13;;
61572;SDS011;47465;43.094;12.434;2024-03-08T10:59:45;11.40;;;4.13;;
61572;SDS011;47465;43.094;12.434;2024-03-08T11:02:12;7.97;;;4.28;;
61572;SDS011;47465;43.094;12.434;2024-03-08T11:04:38;9.52;;;4.13;;
61572;SDS011;47465;43.094;12.434;2024-03-08T11:07:04;6.47;;;3.78;;
61572;SDS011;47465;43.094;12.434;2024-03-08T11:09:32;5.47;;;2.58;;
61572;SDS011;47465;43.094;12.434;2024-03-08T11:12:20;7.78;;;3.30;;
61572;SDS011;47465;43.094;12.434;2024-03-08T11:14:52;5.53;;;2.80;;
61572;SDS011;47465;43.094;12.434;2024-03-08T11:17:25;7.35;;;3.40;;
61572;SDS011;47465;43.094;12.434;2024-03-08T11:20:11;11.43;;;4.15;;
61572;SDS011;47465;43.094;12.434;2024-03-08T11:22:41;9.80;;;3.63;;
61572;SDS011;47465;43.094;12.434;2024-03-08T11:25:30;9.45;;;3.70;;
61572;SDS011;47465;43.094;12.434;2024-03-08T11:28:14;6.38;;;2.53;;
61572;SDS011;47465;43.094;12.434;2024-03-08T11:30:47;5.85;;;3.17;;
61572;SDS011;47465;43.094;12.434;2024-03-08T11:33:48;7.00;;;3.40;;
61572;SDS011;47465;43.094;12.434;2024-03-08T11:36:19;8.73;;;3.13;;
61572;SDS011;47465;43.094;12.434;2024-03-08T11:38:47;6.65;;;2.83;;
61572;SDS011;47465;43.094;12.434;2024-03-08T11:41:14;6.75;;;2.90;;
61572;SDS011;47465;43.094;12.434;2024-03-08T11:43:43;7.10;;;2.92;;
61572;SDS011;47465;43.094;12.434;2024-03-08T11:46:11;3.38;;;1.67;;
61572;SDS011;47465;43.094;12.434;2024-03-08T11:48:38;5.47;;;2.17;;
61572;SDS011;47465;43.094;12.434;2024-03-08T11:51:07;8.25;;;2.72;;
61572;SDS011;47465;43.094;12.434;2024-03-08T11:53:33;5.30;;;2.72;;
61572;SDS011;47465;43.094;12.434;2024-03-08T11:56:05;4.90;;;2.42;;
61572;SDS011;47465;43.094;12.434;2024-03-08T11:58:33;4.22;;;2.60;;
61572;SDS011;47465;43.094;12.434;2024-03-08T12:01:02;4.55;;;2.50;;
61572;SDS011;47465;43.094;12.434;2024-03-08T12:03:31;5.00;;;2.35;;
61572;SDS011;47465;43.094;12.434;2024-03-08T12:05:59;4.70;;;2.63;;
61572;SDS011;47465;43.094;12.434;2024-03-08T12:08:26;6.78;;;2.70;;
61572;SDS011;47465;43.094;12.434;2024-03-08T12:10:53;5.10;;;1.80;;
61572;SDS011;47465;43.094;12.434;2024-03-08T12:13:24;4.30;;;1.38;;
61572;SDS011;47465;43.094;12.434;2024-03-08T12:15:50;3.45;;;1.70;;
61572;SDS011;47465;43.094;12.434;2024-03-08T12:18:17;4.30;;;1.70;;
61572;SDS011;47465;43.094;12.434;2024-03-08T12:20:44;4.57;;;1.98;;
61572;SDS011;47465;43.094;12.434;2024-03-08T12:23:17;5.22;;;1.90;;
61572;SDS011;47465;43.094;12.434;2024-03-08T12:25:44;3.22;;;2.08;;
61572;SDS011;47465;43.094;12.434;2024-03-08T12:28:10;5.47;;;1.90;;
61572;SDS011;47465;43.094;12.434;2024-03-08T12:30:43;6.22;;;2.47;;
61572;SDS011;47465;43.094;12.434;2024-03-08T12:33:12;6.57;;;1.92;;
61572;SDS011;47465;43.094;12.434;2024-03-08T12:35:38;5.03;;;1.40;;
61572;SDS011;47465;43.094;12.434;2024-03-08T12:38:06;3.15;;;1.80;;
61572;SDS011;47465;43.094;12.434;2024-03-08T12:40:33;3.70;;;1.83;;
61572;SDS011;47465;43.094;12.434;2024-03-08T12:43:00;3.28;;;1.52;;
61572;SDS011;47465;43.094;12.434;2024-03-08T12:45:28;2.97;;;1.65;;
61572;SDS011;47465;43.094;12.434;2024-03-08T12:47:54;4.15;;;1.73;;
61572;SDS011;47465;43.094;12.434;2024-03-08T12:50:21;6.15;;;1.65;;
61572;SDS011;47465;43.094;12.434;2024-03-08T12:52:47;2.72;;;1.48;;
61572;SDS011;47465;43.094;12.434;2024-03-08T12:55:15;4.03;;;1.40;;
61572;SDS011;47465;43.094;12.434;2024-03-08T12:57:43;2.50;;;1.23;;
61572;SDS011;47465;43.094;12.434;2024-03-08T13:00:10;4.75;;;1.35;;
61572;SDS011;47465;43.094;12.434;2024-03-08T13:02:44;3.90;;;1.45;;
61572;SDS011;47465;43.094;12.434;2024-03-08T13:05:10;2.95;;;1.25;;
61572;SDS011;47465;43.094;12.434;2024-03-08T13:07:39;2.88;;;1.13;;
61572;SDS011;47465;43.094;12.434;2024-03-08T13:10:06;2.97;;;1.38;;
61572;SDS011;47465;43.094;12.434;2024-03-08T13:12:35;3.53;;;1.45;;
61572;SDS011;47465;43.094;12.434;2024-03-08T13:15:03;3.13;;;1.02;;
61572;SDS011;47465;43.094;12.434;2024-03-08T13:17:30;3.05;;;1.20;;
61572;SDS011;47465;43.094;12.434;2024-03-08T13:19:56;2.40;;;1.13;;
61572;SDS011;47465;43.094;12.434;2024-03-08T13:22:24;4.00;;;1.50;;
61572;SDS011;47465;43.094;12.434;2024-03-08T13:24:50;2.67;;;1.48;;
61572;SDS011;47465;43.094;12.434;2024-03-08T13:27:17;4.10;;;1.67;;
61572;SDS011;47465;43.094;12.434;2024-03-08T13:29:47;3.83;;;1.17;;
61572;SDS011;47465;43.094;12.434;2024-03-08T13:32:13;6.03;;;1.42;;
61572;SDS011;47465;43.094;12.434;2024-03-08T13:34:40;3.55;;;1.30;;
61572;SDS011;47465;43.094;12.434;2024-03-08T13:37:07;5.07;;;1.40;;
61572;SDS011;47465;43.094;12.434;2024-03-08T13:39:35;2.55;;;1.13;;
61572;SDS011;47465;43.094;12.434;2024-03-08T13:42:06;2.05;;;1.15;;
61572;SDS011;47465;43.094;12.434;2024-03-08T13:44:35;1.98;;;1.15;;
61572;SDS011;47465;43.094;12.434;2024-03-08T13:47:03;2.38;;;1.00;;
61572;SDS011;47465;43.094;12.434;2024-03-08T13:49:30;3.00;;;1.40;;
61572;SDS011;47465;43.094;12.434;2024-03-08T13:51:58;2.75;;;1.27;;
61572;SDS011;47465;43.094;12.434;2024-03-08T13:54:30;3.58;;;1.55;;
61572;SDS011;47465;43.094;12.434;2024-03-08T13:56:57;2.50;;;1.55;;
61572;SDS011;47465;43.094;12.434;2024-03-08T13:59:23;4.13;;;1.33;;
61572;SDS011;47465;43.094;12.434;2024-03-08T14:01:50;3.78;;;1.40;;
61572;SDS011;47465;43.094;12.434;2024-03-08T14:04:17;5.13;;;1.63;;
61572;SDS011;47465;43.094;12.434;2024-03-08T14:06:43;4.18;;;1.67;;
61572;SDS011;47465;43.094;12.434;2024-03-08T14:09:10;2.80;;;1.38;;
61572;SDS011;47465;43.094;12.434;2024-03-08T14:11:42;5.38;;;1.33;;
61572;SDS011;47465;43.094;12.434;2024-03-08T14:14:09;2.15;;;1.42;;
61572;SDS011;47465;43.094;12.434;2024-03-08T14:16:37;3.70;;;1.13;;
61572;SDS011;47465;43.094;12.434;2024-03-08T14:19:03;2.42;;;1.30;;
61572;SDS011;47465;43.094;12.434;2024-03-08T14:21:32;2.67;;;1.27;;
61572;SDS011;47465;43.094;12.434;2024-03-08T14:23:59;3.75;;;1.50;;
61572;SDS011;47465;43.094;12.434;2024-03-08T14:26:25;2.80;;;1.35;;
61572;SDS011;47465;43.094;12.434;2024-03-08T14:28:51;3.92;;;1.45;;
61572;SDS011;47465;43.094;12.434;2024-03-08T14:31:19;3.15;;;1.38;;
61572;SDS011;47465;43.094;12.434;2024-03-08T14:33:49;2.58;;;1.45;;
61572;SDS011;47465;43.094;12.434;2024-03-08T14:36:15;2.65;;;1.13;;
61572;SDS011;47465;43.094;12.434;2024-03-08T14:41:12;2.65;;;1.40;;
61572;SDS011;47465;43.094;12.434;2024-03-08T14:43:42;3.42;;;2.20;;
61572;SDS011;47465;43.094;12.434;2024-03-08T14:46:10;4.22;;;1.77;;
61572;SDS011;47465;43.094;12.434;2024-03-08T14:48:39;2.72;;;1.65;;
61572;SDS011;47465;43.094;12.434;2024-03-08T14:51:06;1.88;;;1.00;;
61572;SDS011;47465;43.094;12.434;2024-03-08T14:53:35;2.33;;;1.75;;
61572;SDS011;47465;43.094;12.434;2024-03-08T14:56:03;3.42;;;1.50;;
61572;SDS011;47465;43.094;12.434;2024-03-08T14:58:30;6.30;;;3.03;;
61572;SDS011;47465;43.094;12.434;2024-03-08T15:00:56;4.97;;;1.85;;
61572;SDS011;47465;43.094;12.434;2024-03-08T15:03:25;5.18;;;2.03;;
61572;SDS011;47465;43.094;12.434;2024-03-08T15:05:52;4.32;;;1.40;;
61572;SDS011;47465;43.094;12.434;2024-03-08T15:08:18;5.82;;;1.95;;
61572;SDS011;47465;43.094;12.434;2024-03-08T15:10:44;3.03;;;1.33;;
61572;SDS011;47465;43.094;12.434;2024-03-08T15:13:12;5.28;;;1.83;;
61572;SDS011;47465;43.094;12.434;2024-03-08T15:15:46;3.15;;;1.45;;